createdAt,value
2019-03-08T00:03:01.564Z,99348.22
2019-03-08T00:08:07.811Z,99336.72
2019-03-08T00:13:14.239Z,99363.47
2019-03-08T00:18:21.588Z,99360.03
2019-03-08T00:23:28.593Z,99323.70
2019-03-08T00:28:34.328Z,99322.50
2019-03-08T00:33:41.016Z,99309.61
2019-03-08T00:38:47.563Z,99304.60
2019-03-08T00:43:53.719Z,99316.16
2019-03-08T00:48:59.968Z,99308.75
2019-03-08T00:54:06.790Z,99317.36
2019-03-08T00:59:15.471Z,99311.84
2019-03-08T01:04:21.453Z,99312.89
2019-03-08T01:09:27.104Z,99303.62
2019-03-08T01:14:33.209Z,99305.12
2019-03-08T01:19:39.395Z,99298.65
2019-03-08T01:24:45.571Z,99302.31
2019-03-08T01:29:51.794Z,99298.77
2019-03-08T01:35:01.771Z,99301.00
2019-03-08T01:40:09.451Z,99287.89
2019-03-08T01:45:16.734Z,99266.52
2019-03-08T01:50:27.868Z,99258.94
2019-03-08T01:55:35.409Z,99258.58
2019-03-08T02:00:44.481Z,99248.01
2019-03-08T02:05:53.909Z,99264.17
2019-03-08T02:11:01.748Z,99253.27
2019-03-08T02:16:08.327Z,99238.81
2019-03-08T02:21:16.979Z,99235.72
2019-03-08T02:26:27.435Z,99230.41
2019-03-08T02:31:36.811Z,99205.36
2019-03-08T02:36:43.859Z,99217.84
2019-03-08T02:41:51.467Z,99221.27
2019-03-08T02:46:58.931Z,99234.19
2019-03-08T02:52:06.897Z,99244.23
2019-03-08T02:57:13.064Z,99220.58
2019-03-08T03:02:18.806Z,99234.64
2019-03-08T03:07:25.921Z,99203.73
2019-03-08T03:12:34.131Z,99226.13
2019-03-08T03:17:40.184Z,99216.19
2019-03-08T03:22:45.864Z,99205.92
2019-03-08T03:27:52.694Z,99223.14
2019-03-08T03:32:59.987Z,99220.41
2019-03-08T03:38:06.431Z,99201.37
2019-03-08T03:43:15.033Z,99207.14
2019-03-08T03:48:22.108Z,99184.64
2019-03-08T03:53:28.227Z,99194.98
2019-03-08T03:58:34.038Z,99189.67
2019-03-08T04:03:39.620Z,99205.66
2019-03-08T04:08:46.150Z,99182.66
2019-03-08T04:13:52.322Z,99170.62
2019-03-08T04:18:58.828Z,99169.04
2019-03-08T04:24:05.670Z,99154.45
2019-03-08T04:29:11.436Z,99184.25
2019-03-08T04:34:17.366Z,99164.91
2019-03-08T04:39:25.125Z,99168.80
2019-03-08T04:44:31.051Z,99156.03
2019-03-08T04:49:38.024Z,99173.79
2019-03-08T04:54:44.358Z,99150.45
2019-03-08T04:59:50.054Z,99152.87
2019-03-08T05:04:55.793Z,99164.56
2019-03-08T05:10:01.466Z,99147.64
2019-03-08T05:15:09.118Z,99154.33
2019-03-08T05:20:14.945Z,99155.98
2019-03-08T05:25:20.473Z,99144.47
2019-03-08T05:30:26.807Z,99168.41
2019-03-08T05:35:32.862Z,99136.06
2019-03-08T05:40:40.065Z,99148.08
2019-03-08T05:45:46.141Z,99162.02
2019-03-08T05:50:51.868Z,99176.78
2019-03-08T05:55:57.579Z,99187.23
2019-03-08T06:01:04.370Z,99165.09
2019-03-08T06:06:11.751Z,99187.55
2019-03-08T06:11:17.327Z,99188.00
2019-03-08T06:16:24.637Z,99208.52
2019-03-08T06:21:31.340Z,99190.70
2019-03-08T06:26:37.116Z,99210.56
2019-03-08T06:31:42.717Z,99211.69
2019-03-08T06:36:48.793Z,99246.86
2019-03-08T06:41:54.916Z,99229.27
2019-03-08T06:47:00.690Z,99234.33
2019-03-08T06:52:06.247Z,99288.45
2019-03-08T06:57:12.176Z,99268.89
2019-03-08T07:02:19.483Z,99280.71
2019-03-08T07:07:25.794Z,99298.45
2019-03-08T07:12:33.085Z,99306.61
2019-03-08T07:17:39.679Z,99330.02
2019-03-08T07:22:58.856Z,99339.78
2019-03-08T07:28:06.493Z,99322.09
2019-03-08T07:33:16.861Z,99337.16
2019-03-08T07:38:33.266Z,99354.80
2019-03-08T07:43:43.769Z,99359.47
2019-03-08T07:48:58.324Z,99393.26
2019-03-08T07:54:11.747Z,99388.23
2019-03-08T07:59:21.990Z,99425.96
2019-03-08T08:04:42.828Z,99407.23
2019-03-08T08:09:51.105Z,99427.47
2019-03-08T08:15:14.849Z,99460.73
2019-03-08T08:26:28.447Z,99497.11
2019-03-08T08:31:37.632Z,99473.00
2019-03-08T08:36:51.292Z,99488.00
2019-03-08T08:42:00.167Z,99512.61
2019-03-08T08:47:24.203Z,99560.94
2019-03-08T08:52:31.459Z,99528.74
2019-03-08T08:57:43.712Z,99549.34
2019-03-08T09:03:07.845Z,99568.58
2019-03-08T09:08:25.913Z,99584.12
2019-03-08T09:13:35.924Z,99578.67
2019-03-08T09:18:52.993Z,99586.32
2019-03-08T09:24:12.151Z,99603.04
2019-03-08T09:29:20.716Z,99602.45
2019-03-08T09:34:46.430Z,99623.14
2019-03-08T09:39:58.254Z,99654.06
2019-03-08T09:45:11.717Z,99657.61
2019-03-08T09:50:20.411Z,99674.34
2019-03-08T09:55:27.951Z,99692.19
2019-03-08T10:00:45.359Z,99729.00
2019-03-08T10:06:02.830Z,99742.73
2019-03-08T10:11:13.181Z,99749.42
2019-03-08T10:16:20.767Z,99773.94
2019-03-08T10:21:45.023Z,99845.05
2019-03-08T10:27:08.010Z,99771.87
2019-03-08T10:32:17.191Z,99800.24
2019-03-08T10:37:37.866Z,99794.20
2019-03-08T10:42:46.963Z,99866.09
2019-03-08T10:47:56.467Z,99831.84
2019-03-08T10:53:08.918Z,99834.06
2019-03-08T10:58:27.846Z,99854.11
2019-03-08T11:03:37.880Z,99839.91
2019-03-08T11:08:45.676Z,99929.20
2019-03-08T11:14:02.008Z,99916.70
2019-03-08T11:19:15.373Z,99971.50
2019-03-08T11:24:22.965Z,99947.31
2019-03-08T11:29:37.359Z,99959.50
2019-03-08T11:34:51.929Z,99979.06
2019-03-08T11:39:55.608Z,99992.43
2019-03-08T11:45:19.594Z,100009.68
2019-03-08T11:50:43.752Z,100003.66
2019-03-08T11:55:52.623Z,100013.75
2019-03-08T12:01:05.962Z,100019.87
2019-03-08T12:06:22.337Z,100025.59
2019-03-08T12:11:30.487Z,100016.61
2019-03-08T12:16:57.147Z,100025.73
2019-03-08T12:22:10.985Z,100040.65
2019-03-08T12:27:35.568Z,100052.38
2019-03-08T12:32:55.521Z,100049.61
2019-03-08T12:38:06.641Z,100063.52
2019-03-08T12:43:23.535Z,100064.01
2019-03-08T12:48:47.244Z,100087.28
2019-03-08T12:54:09.645Z,100104.09
2019-03-08T12:59:23.870Z,100106.09
2019-03-08T13:04:31.904Z,100103.78
2019-03-08T13:09:43.292Z,100121.91
2019-03-08T13:14:50.304Z,100118.78
2019-03-08T13:19:56.365Z,100129.47
2019-03-08T13:25:02.828Z,100144.11
2019-03-08T13:30:15.067Z,100139.25
2019-03-08T13:35:21.398Z,100154.41
2019-03-08T13:40:27.178Z,100175.30
2019-03-08T13:45:34.729Z,100161.08
2019-03-08T13:50:41.187Z,100196.55
2019-03-08T13:55:47.909Z,100205.48
2019-03-08T14:00:56.048Z,100205.31
2019-03-08T14:06:02.599Z,100244.86
2019-03-08T14:11:10.011Z,100223.69
2019-03-08T14:16:18.406Z,100244.39
2019-03-08T14:21:24.329Z,100257.25
2019-03-08T14:26:31.834Z,100290.53
2019-03-08T14:31:49.235Z,100265.14
2019-03-08T14:36:54.642Z,100268.61
2019-03-08T14:42:19.319Z,100281.03
2019-03-08T14:47:29.370Z,100303.74
2019-03-08T14:52:35.696Z,100285.45
2019-03-08T14:57:42.131Z,100337.27
2019-03-08T15:02:48.679Z,100303.09
2019-03-08T15:07:55.188Z,100309.04
2019-03-08T15:13:01.474Z,100336.23
2019-03-08T15:18:09.677Z,100315.77
2019-03-08T15:23:17.126Z,100333.43
2019-03-08T15:28:27.161Z,100341.56
2019-03-08T15:33:35.632Z,100352.19
2019-03-08T15:38:45.263Z,100369.42
2019-03-08T15:43:52.742Z,100370.41
2019-03-08T15:49:00.497Z,100366.83
2019-03-08T15:54:07.942Z,100360.27
2019-03-08T15:59:14.161Z,100396.47
2019-03-08T16:04:21.104Z,100386.03
2019-03-08T16:09:30.410Z,100397.98
2019-03-08T16:14:35.993Z,100402.70
2019-03-08T16:19:44.353Z,100413.66
2019-03-08T16:24:51.487Z,100443.98
2019-03-08T16:30:02.999Z,100431.42
2019-03-08T16:35:07.812Z,100450.98
2019-03-08T16:40:17.981Z,100449.20
2019-03-08T16:45:31.079Z,100450.37
2019-03-08T16:50:40.279Z,100464.80
2019-03-08T16:55:50.283Z,100468.81
2019-03-08T17:01:06.990Z,100470.08
2019-03-08T17:06:31.478Z,100491.84
2019-03-08T17:11:38.994Z,100501.21
2019-03-08T17:16:56.699Z,100500.34
2019-03-08T17:22:03.912Z,100510.55
2019-03-08T17:27:13.290Z,100526.11
2019-03-08T17:32:21.764Z,100534.16
2019-03-08T17:37:36.696Z,100548.23
2019-03-08T17:42:49.903Z,100553.41
2019-03-08T17:48:04.335Z,100561.32
2019-03-08T17:53:28.301Z,100565.63
2019-03-08T17:58:35.741Z,100571.45
2019-03-08T18:03:45.767Z,100578.75
2019-03-08T18:08:55.894Z,100591.66
2019-03-08T18:14:20.250Z,100587.22
2019-03-08T18:19:30.352Z,100583.09
2019-03-08T18:24:54.487Z,100593.52
2019-03-08T18:30:03.887Z,100594.25
2019-03-08T18:35:14.835Z,100609.42
2019-03-08T18:40:28.923Z,100607.57
2019-03-08T18:45:43.042Z,100598.61
2019-03-08T18:50:55.330Z,100614.66
2019-03-08T18:56:04.061Z,100616.69
2019-03-08T19:01:28.112Z,100612.45
2019-03-08T19:06:39.180Z,100608.48
2019-03-08T19:11:59.150Z,100616.17
2019-03-08T19:17:06.540Z,100616.80
2019-03-08T19:22:30.960Z,100621.33
2019-03-08T19:27:44.860Z,100618.40
2019-03-08T19:33:04.027Z,100620.53
2019-03-08T19:38:17.179Z,100625.05
2019-03-08T19:43:30.621Z,100629.20
2019-03-08T19:48:46.637Z,100630.63
2019-03-08T19:54:10.565Z,100641.89
2019-03-08T19:59:33.957Z,100649.17
2019-03-08T20:04:42.056Z,100648.05
2019-03-08T20:10:06.512Z,100645.25
2019-03-08T20:15:29.448Z,100644.37
2019-03-08T20:20:56.945Z,100649.61
2019-03-08T20:26:10.786Z,100642.61
2019-03-08T20:31:18.667Z,100654.03
2019-03-08T20:36:39.977Z,100661.58
2019-03-08T20:41:56.880Z,100660.20
2019-03-08T20:47:04.915Z,100662.80
2019-03-08T20:52:10.566Z,100675.26
2019-03-08T20:57:18.652Z,100670.05
2019-03-08T21:02:24.302Z,100667.08
2019-03-08T21:07:30.520Z,100670.66
2019-03-08T21:12:36.090Z,100677.37
2019-03-08T21:17:43.756Z,100672.06
2019-03-08T21:22:50.009Z,100672.69
2019-03-08T21:27:56.241Z,100669.64
2019-03-08T21:33:02.409Z,100671.22
2019-03-08T21:38:09.234Z,100661.26
2019-03-08T21:43:15.204Z,100663.42
2019-03-08T21:48:21.581Z,100667.91
2019-03-08T21:53:27.502Z,100657.81
2019-03-08T21:58:34.961Z,100637.78
2019-03-08T22:03:41.100Z,100635.83
2019-03-08T22:08:49.436Z,100634.61
2019-03-08T22:13:55.383Z,100646.16
2019-03-08T22:19:01.818Z,100649.98
2019-03-08T22:24:13.470Z,100636.48
2019-03-08T22:29:15.249Z,100634.11
2019-03-08T22:34:21.254Z,100624.84
2019-03-08T22:39:27.037Z,100621.78
2019-03-08T22:44:32.959Z,100618.26
2019-03-08T22:49:39.240Z,100608.38
2019-03-08T22:54:44.842Z,100600.00
2019-03-08T22:59:50.441Z,100597.61
2019-03-08T23:04:56.995Z,100595.52
2019-03-08T23:10:03.308Z,100589.72
2019-03-08T23:15:09.610Z,100583.39
2019-03-08T23:20:16.042Z,100583.86
2019-03-08T23:25:21.677Z,100576.91
2019-03-08T23:30:28.657Z,100565.13
2019-03-08T23:35:35.195Z,100562.72
2019-03-08T23:40:41.136Z,100551.76
2019-03-08T23:45:47.037Z,100553.27
2019-03-08T23:50:52.670Z,100552.68
2019-03-08T23:55:58.316Z,100546.38
